Time;durP1;ratioP1;P1;durP2;ratioP2;P2;SDS_P1;SDS_P2;PMS_P1;PMS_P2;Temp;Humidity;BMP_temperature;BMP_pressure;BME280_temperature;BME280_humidity;BME280_pressure;Samples;Min_cycle;Max_cycle;Signal;HPM_P1;HPM_P2
2021/04/13 00:00:35;;;;;;;14.20;8.50;;;410.20;1484.80;;;;;;5091365;28;20089;-66
2021/04/13 00:03:07;;;;;;;18.10;10.10;;;410.20;1484.80;;;;;;5091831;28;20035;-66
2021/04/13 00:05:41;;;;;;;17.52;8.82;;;410.20;1484.80;;;;;;5091517;28;20028;-66
2021/04/13 00:08:21;;;;;;;18.27;9.40;;;410.20;1484.80;;;;;;5091914;28;20480;-66
2021/04/13 00:10:58;;;;;;;17.15;9.82;;;410.10;1484.80;;;;;;5091703;28;20081;-67
2021/04/13 00:13:24;;;;;;;21.40;10.43;;;410.10;1484.80;;;;;;5091568;28;20492;-66
2021/04/13 00:15:56;;;;;;;17.45;9.32;;;410.00;1484.80;;;;;;5091890;28;20028;-66
2021/04/13 00:18:28;;;;;;;17.45;8.82;;;410.00;1510.40;;;;;;5091518;28;20052;-67
2021/04/13 00:20:59;;;;;;;16.85;10.15;;;409.90;1510.40;;;;;;5091226;28;20042;-67
2021/04/13 00:23:26;;;;;;;19.85;10.43;;;409.80;1510.40;;;;;;5091519;28;20447;-67
2021/04/13 00:25:56;;;;;;;18.38;10.60;;;409.80;1510.40;;;;;;5091507;28;20032;-67
2021/04/13 00:28:44;;;;;;;15.43;10.05;;;409.80;1510.40;;;;;;5091600;28;20024;-65
2021/04/13 00:31:45;;;;;;;17.02;9.65;;;409.80;1510.40;;;;;;5091516;28;20024;-66
2021/04/13 00:34:24;;;;;;;16.55;9.60;;;409.80;1510.40;;;;;;5063282;28;20020;-66
2021/04/13 00:37:09;;;;;;;17.25;9.07;;;409.90;1561.60;;;;;;5091534;28;20024;-67
2021/04/13 00:39:34;;;;;;;16.25;9.10;;;409.90;1587.20;;;;;;5091075;28;20028;-66
2021/04/13 00:42:04;;;;;;;17.55;9.43;;;409.90;1587.20;;;;;;5091347;28;20020;-66
2021/04/13 00:44:34;;;;;;;16.75;9.02;;;409.80;1587.20;;;;;;5091268;28;20069;-67
2021/04/13 00:47:03;;;;;;;;;;;409.70;1612.80;;;;;;5087331;28;20454;-66
2021/04/13 00:49:35;;;;;;;16.25;8.10;;;384.90;1612.80;;;;;;5086644;28;19995;-66
2021/04/13 00:52:15;;;;;;;14.38;8.10;;;384.90;1612.80;;;;;;5086656;28;20065;-67
2021/04/13 00:54:58;;;;;;;13.80;7.53;;;384.80;1612.80;;;;;;5091171;28;20477;-68
2021/04/13 00:57:26;;;;;;;13.02;7.70;;;384.70;1612.80;;;;;;5091559;28;20332;-67
2021/04/13 00:59:54;;;;;;;12.55;7.40;;;384.60;1638.40;;;;;;5090792;28;20095;-66
2021/04/13 01:02:28;;;;;;;15.25;6.95;;;384.60;1612.80;;;;;;5089103;28;20378;-67
2021/04/13 01:05:07;;;;;;;8.52;4.60;;;384.30;1612.80;;;;;;5064671;28;20025;-66
2021/04/13 01:07:39;;;;;;;8.05;3.20;;;384.40;1459.20;;;;;;5069948;28;20043;-66
2021/04/13 01:10:09;;;;;;;10.32;3.50;;;384.80;1331.20;;;;;;5070693;28;20104;-66
2021/04/13 01:12:40;;;;;;;7.82;3.53;;;409.70;1331.20;;;;;;5073518;28;20025;-67
2021/04/13 01:15:09;;;;;;;7.63;3.22;;;409.80;1331.20;;;;;;5074841;28;20492;-66
2021/04/13 01:17:37;;;;;;;6.50;3.03;;;409.90;1331.20;;;;;;5074839;28;20032;-66
2021/04/13 01:20:14;;;;;;;7.65;3.67;;;410.00;1331.20;;;;;;5074453;28;20024;-67
2021/04/13 01:25:43;;;;;;;11.00;3.75;;;409.90;1331.20;;;;;;5079844;28;20024;-67
2021/04/13 01:28:22;;;;;;;10.48;3.70;;;409.90;1356.80;;;;;;5069888;28;20037;-66
2021/04/13 01:30:56;;;;;;;9.15;4.10;;;409.90;1356.80;;;;;;5074212;28;20028;-66
2021/04/13 01:33:36;;;;;;;14.65;4.78;;;409.80;1356.80;;;;;;5074605;28;20029;-67
2021/04/13 01:36:17;;;;;;;8.82;3.80;;;409.70;1356.80;;;;;;5074449;28;20024;-66
2021/04/13 01:39:05;;;;;;;10.25;4.03;;;409.80;1356.80;;;;;;5074040;28;20074;-68
2021/04/13 01:41:44;;;;;;;9.52;4.35;;;409.80;1356.80;;;;;;5074301;28;20064;-67
2021/04/13 01:44:12;;;;;;;8.80;3.80;;;409.80;1356.80;;;;;;5074508;28;20051;-67
2021/04/13 01:46:38;;;;;;;7.55;3.55;;;409.80;1356.80;;;;;;5074200;28;20036;-67
2021/04/13 01:49:04;;;;;;;8.98;3.30;;;409.80;1356.80;;;;;;5073926;28;20029;-66
2021/04/13 01:51:33;;;;;;;8.40;2.97;;;409.70;1356.80;;;;;;5067670;28;20095;-66
2021/04/13 01:53:59;;;;;;;5.43;2.60;;;409.70;1356.80;;;;;;5068008;28;20025;-66
2021/04/13 01:56:44;;;;;;;11.48;2.85;;;409.70;1382.40;;;;;;5073857;28;20020;-68
2021/04/13 01:59:25;;;;;;;7.85;2.47;;;409.60;1382.40;;;;;;5073877;28;20024;-66
2021/04/13 02:01:55;;;;;;;;;;;409.60;1382.40;;;;;;5074623;28;20059;-67
2021/04/13 02:04:30;;;;;;;7.18;2.28;;;409.60;1408.00;;;;;;5074191;28;19912;-66
2021/04/13 02:07:30;;;;;;;6.38;2.00;;;409.60;1408.00;;;;;;5074204;28;20401;-66
2021/04/13 02:10:06;;;;;;;5.83;1.90;;;409.70;1408.00;;;;;;5073428;28;20563;-66
2021/04/13 02:12:37;;;;;;;6.25;2.08;;;409.70;1408.00;;;;;;5074070;28;20055;-67
2021/04/13 02:15:21;;;;;;;6.75;2.20;;;409.70;1408.00;;;;;;5073688;28;20047;-67
2021/04/13 02:17:59;;;;;;;5.60;2.20;;;409.70;1433.60;;;;;;5073897;28;20028;-66
2021/04/13 02:20:33;;;;;;;5.65;2.00;;;409.70;1408.00;;;;;;5073386;28;20021;-66
2021/04/13 02:23:01;;;;;;;5.72;2.00;;;409.70;1408.00;;;;;;5073057;28;20035;-67
2021/04/13 02:25:31;;;;;;;6.32;2.08;;;409.70;1433.60;;;;;;5076320;28;20036;-67
2021/04/13 02:27:59;;;;;;;5.03;2.10;;;409.60;1433.60;;;;;;5073504;28;20035;-67
2021/04/13 02:30:34;;;;;;;6.95;2.03;;;409.60;1433.60;;;;;;5073075;28;20530;-67
2021/04/13 02:33:06;;;;;;;4.30;2.00;;;409.60;1433.60;;;;;;5073505;28;20024;-67
2021/04/13 02:35:37;;;;;;;5.93;2.28;;;384.90;1433.60;;;;;;5073157;28;20473;-67
2021/04/13 02:38:07;;;;;;;5.18;2.20;;;384.90;1433.60;;;;;;5073433;28;20035;-67
2021/04/13 02:40:57;;;;;;;6.75;2.63;;;384.70;1459.20;;;;;;5072775;28;20475;-66
2021/04/13 02:43:31;;;;;;;7.35;2.72;;;384.70;1459.20;;;;;;5073243;28;20028;-66
2021/04/13 02:46:06;;;;;;;4.93;2.20;;;384.60;1459.20;;;;;;5059751;28;20059;-66
2021/04/13 02:48:41;;;;;;;7.60;2.70;;;384.60;1484.80;;;;;;5073126;28;20033;-67
2021/04/13 02:51:10;;;;;;;6.85;2.75;;;384.60;1484.80;;;;;;5069930;28;20396;-67
2021/04/13 02:53:58;;;;;;;7.70;2.50;;;384.60;1484.80;;;;;;5066697;28;20027;-66
2021/04/13 02:56:41;;;;;;;8.15;2.42;;;384.50;1510.40;;;;;;5061661;28;20020;-67
2021/04/13 02:59:12;;;;;;;7.00;2.40;;;384.50;1536.00;;;;;;5072563;28;20021;-66
2021/04/13 03:02:00;;;;;;;9.45;2.40;;;384.50;1510.40;;;;;;5072995;28;20024;-67
2021/04/13 03:04:28;;;;;;;5.50;2.20;;;384.50;1536.00;;;;;;5072647;28;20032;-66
2021/04/13 03:06:58;;;;;;;9.25;3.00;;;384.50;1536.00;;;;;;5072782;28;20086;-67
2021/04/13 03:09:28;;;;;;;5.78;2.47;;;384.50;1536.00;;;;;;5072418;28;20035;-68
2021/04/13 03:12:00;;;;;;;7.72;2.60;;;384.60;1536.00;;;;;;5072479;28;20039;-66
2021/04/13 03:14:33;;;;;;;5.97;2.30;;;384.60;1510.40;;;;;;5072901;28;20467;-66
2021/04/13 03:16:59;;;;;;;5.53;2.00;;;384.60;1510.40;;;;;;5072665;28;20020;-67
2021/04/13 03:19:27;;;;;;;6.72;2.42;;;384.60;1510.40;;;;;;5072364;28;20043;-66
2021/04/13 03:22:00;;;;;;;5.80;2.13;;;384.60;1510.40;;;;;;5072545;28;20044;-68
2021/04/13 03:24:33;;;;;;;6.22;2.38;;;384.60;1510.40;;;;;;5072729;28;20078;-66
2021/04/13 03:27:02;;;;;;;6.13;2.40;;;384.60;1510.40;;;;;;5073729;28;20020;-67
2021/04/13 03:29:53;;;;;;;5.47;2.20;;;384.60;1510.40;;;;;;5071891;28;20052;-67
2021/04/13 03:32:22;;;;;;;5.18;2.10;;;384.60;1510.40;;;;;;5063124;28;20508;-67
2021/04/13 03:34:48;;;;;;;6.80;3.15;;;384.60;1510.40;;;;;;5070101;28;20475;-66
2021/04/13 03:37:16;;;;;;;5.55;2.22;;;384.50;1536.00;;;;;;5071764;28;20469;-67
2021/04/13 03:39:45;;;;;;;5.72;2.30;;;384.50;1536.00;;;;;;5072086;28;20020;-66
2021/04/13 03:42:17;;;;;;;8.25;2.20;;;384.50;1536.00;;;;;;5072055;28;20016;-66
2021/04/13 03:44:44;;;;;;;8.75;2.10;;;384.40;1536.00;;;;;;5072219;28;20016;-65
2021/04/13 03:47:13;;;;;;;6.72;2.22;;;384.40;1536.00;;;;;;5071720;28;20013;-66
2021/04/13 03:49:41;;;;;;;6.13;2.40;;;384.40;1536.00;;;;;;5071756;28;20056;-67
2021/04/13 03:52:31;;;;;;;10.55;2.70;;;384.40;1536.00;;;;;;5061531;28;20032;-66
2021/04/13 03:55:10;;;;;;;6.70;2.55;;;384.30;1561.60;;;;;;5071923;28;20473;-67
2021/04/13 03:57:37;;;;;;;5.55;2.70;;;384.20;1561.60;;;;;;5071712;28;20513;-67
2021/04/13 04:00:07;;;;;;;7.78;3.25;;;384.10;1587.20;;;;;;5071649;28;20025;-67
2021/04/13 04:02:34;;;;;;;6.75;2.72;;;384.10;1612.80;;;;;;5071721;28;20393;-67
2021/04/13 04:05:15;;;;;;;6.50;2.88;;;384.10;1638.40;;;;;;5072179;28;20043;-66
2021/04/13 04:07:59;;;;;;;8.63;2.85;;;384.00;1664.00;;;;;;5071531;28;20105;-66
2021/04/13 04:10:27;;;;;;;6.35;2.60;;;359.10;1689.60;;;;;;5071418;28;20029;-67
2021/04/13 04:13:09;;;;;;;10.77;3.95;;;359.00;1740.80;;;;;;5071160;28;20025;-67
2021/04/13 04:15:41;;;;;;;87.32;32.42;;;359.00;1740.80;;;;;;5071607;28;20028;-67
2021/04/13 04:18:13;;;;;;;39.83;19.60;;;358.90;1766.40;;;;;;5071203;28;20029;-66
2021/04/13 04:20:39;;;;;;;16.75;9.45;;;359.00;1766.40;;;;;;5071414;28;20496;-66
2021/04/13 04:23:05;;;;;;;11.35;6.78;;;359.10;1766.40;;;;;;5071215;28;20021;-67
2021/04/13 04:25:41;;;;;;;10.00;4.82;;;359.10;1766.40;;;;;;5074524;28;20028;-66
2021/04/13 04:28:32;;;;;;;6.78;2.50;;;359.10;1766.40;;;;;;5071350;28;20043;-68
2021/04/13 04:31:35;;;;;;;8.07;2.40;;;359.00;1792.00;;;;;;5071397;28;20025;-66
2021/04/13 04:34:13;;;;;;;5.30;2.03;;;359.10;1817.60;;;;;;5071211;28;20047;-66
2021/04/13 04:36:50;;;;;;;5.68;2.30;;;359.10;1792.00;;;;;;5071383;28;20408;-66
2021/04/13 04:39:33;;;;;;;5.95;2.40;;;359.00;1817.60;;;;;;5058380;28;20024;-66
2021/04/13 04:42:07;;;;;;;4.90;2.20;;;359.00;1792.00;;;;;;5071390;28;20024;-67
2021/04/13 04:44:34;;;;;;;9.30;2.60;;;359.00;1817.60;;;;;;5071422;28;20028;-70
2021/04/13 04:47:00;;;;;;;6.38;2.35;;;358.90;1817.60;;;;;;5070925;28;20020;-67
2021/04/13 04:49:39;;;;;;;7.43;2.15;;;359.00;1817.60;;;;;;5070733;28;20050;-66
2021/04/13 04:52:06;;;;;;;9.15;2.10;;;359.00;1817.60;;;;;;5060804;28;20025;-66
2021/04/13 04:54:32;;;;;;;7.55;2.47;;;359.00;1792.00;;;;;;5071025;28;20016;-66
2021/04/13 04:56:57;;;;;;;11.32;5.00;;;359.10;1792.00;;;;;;5071037;28;20440;-67
2021/04/13 04:59:23;;;;;;;9.95;4.75;;;359.10;1792.00;;;;;;5070574;28;20584;-66
2021/04/13 05:01:49;;;;;;;11.82;4.97;;;359.20;1792.00;;;;;;5071190;28;20412;-66
2021/04/13 05:04:15;;;;;;;14.82;6.63;;;359.30;1766.40;;;;;;5060312;28;20024;-67
2021/04/13 05:06:41;;;;;;;9.02;4.13;;;384.00;1740.80;;;;;;5071066;28;20534;-69
2021/04/13 05:09:07;;;;;;;12.48;8.10;;;384.00;1766.40;;;;;;5070752;28;20020;-67
2021/04/13 05:11:32;;;;;;;10.93;6.82;;;384.00;1740.80;;;;;;5070670;28;20055;-66
2021/04/13 05:13:58;;;;;;;10.85;5.65;;;384.00;1766.40;;;;;;5071003;28;20383;-67
2021/04/13 05:16:24;;;;;;;6.18;3.50;;;384.10;1740.80;;;;;;5070737;28;20481;-69
2021/04/13 05:18:50;;;;;;;10.00;5.95;;;384.10;1740.80;;;;;;5070862;28;20025;-66
2021/04/13 05:21:17;;;;;;;12.93;7.22;;;384.10;1740.80;;;;;;5070799;28;20028;-67
2021/04/13 05:23:42;;;;;;;12.35;6.53;;;384.10;1740.80;;;;;;5070701;28;20035;-67
2021/04/13 05:26:09;;;;;;;9.50;4.28;;;384.10;1740.80;;;;;;5073745;28;20456;-67
2021/04/13 05:28:36;;;;;;;7.10;2.42;;;384.10;1766.40;;;;;;5070445;28;20035;-70
2021/04/13 05:31:02;;;;;;;6.15;2.88;;;384.00;1740.80;;;;;;5070725;28;20031;-66
2021/04/13 05:33:28;;;;;;;9.68;4.00;;;359.30;1740.80;;;;;;5070614;28;20024;-66
2021/04/13 05:35:55;;;;;;;10.25;3.28;;;359.30;1740.80;;;;;;5070568;28;20032;-67
2021/04/13 05:38:28;;;;;;;7.55;2.80;;;359.30;1766.40;;;;;;5070632;28;20033;-66
2021/04/13 05:40:57;;;;;;;7.38;2.42;;;359.20;1792.00;;;;;;5070735;28;20021;-67
2021/04/13 05:43:24;;;;;;;8.05;2.60;;;359.20;1766.40;;;;;;5070495;28;20473;-66
2021/04/13 05:45:51;;;;;;;10.30;3.17;;;359.20;1766.40;;;;;;5070857;28;20081;-68
2021/04/13 05:48:18;;;;;;;10.70;3.45;;;359.20;1766.40;;;;;;5070275;28;20477;-66
2021/04/13 05:50:45;;;;;;;6.97;2.60;;;384.00;1766.40;;;;;;5069850;28;20110;-67
2021/04/13 05:53:12;;;;;;;9.38;2.92;;;384.10;1766.40;;;;;;5060255;28;20024;-66
2021/04/13 05:55:39;;;;;;;10.13;3.33;;;384.30;1740.80;;;;;;5070406;28;20032;-67
2021/04/13 05:58:20;;;;;;;8.82;3.10;;;384.50;1715.20;;;;;;5072193;28;20470;-67
2021/04/13 06:00:49;;;;;;;7.15;2.92;;;384.60;1715.20;;;;;;5072103;28;20025;-66
2021/04/13 06:03:17;;;;;;;6.30;2.67;;;384.70;1715.20;;;;;;5073643;28;20020;-66
2021/04/13 06:05:43;;;;;;;6.45;2.58;;;384.80;1689.60;;;;;;5073838;28;20157;-66
2021/04/13 06:08:10;;;;;;;6.57;2.60;;;384.90;1689.60;;;;;;5073972;28;20115;-66
2021/04/13 06:10:36;;;;;;;6.45;2.70;;;409.60;1715.20;;;;;;5073163;28;20414;-67
2021/04/13 06:13:02;;;;;;;7.80;2.42;;;409.80;1715.20;;;;;;5073369;28;20033;-65
2021/04/13 06:15:29;;;;;;;6.88;2.45;;;409.90;1689.60;;;;;;5073737;28;20514;-72
2021/04/13 06:17:56;;;;;;;6.38;2.45;;;409.90;1715.20;;;;;;5073674;28;20058;-70
2021/04/13 06:20:23;;;;;;;7.07;2.50;;;409.90;1715.20;;;;;;5073154;28;20043;-71
2021/04/13 06:22:50;;;;;;;8.25;2.80;;;409.90;1715.20;;;;;;5073954;28;20031;-66
2021/04/13 06:25:17;;;;;;;6.78;2.70;;;409.90;1689.60;;;;;;5076519;28;20020;-66
2021/04/13 06:27:43;;;;;;;6.13;2.70;;;410.00;1715.20;;;;;;5073721;28;20025;-66
2021/04/13 06:30:11;;;;;;;7.57;3.20;;;410.10;1689.60;;;;;;5072884;28;20384;-66
2021/04/13 06:32:36;;;;;;;8.05;2.58;;;410.20;1689.60;;;;;;5073501;28;20024;-66
2021/04/13 06:35:03;;;;;;;5.85;2.70;;;410.40;1638.40;;;;;;5073332;28;20128;-66
2021/04/13 06:37:29;;;;;;;7.22;2.90;;;435.20;1638.40;;;;;;5074000;28;20078;-67
2021/04/13 06:39:54;;;;;;;12.82;4.93;;;435.30;1612.80;;;;;;5073098;28;20020;-66
2021/04/13 06:42:39;;;;;;;12.82;4.40;;;435.50;1612.80;;;;;;5073088;28;20020;-66
2021/04/13 06:45:18;;;;;;;10.82;4.22;;;435.60;1587.20;;;;;;5067705;28;20032;-66
2021/04/13 06:47:53;;;;;;;8.35;3.15;;;435.60;1561.60;;;;;;5064298;28;20067;-67
2021/04/13 06:50:39;;;;;;;11.63;4.85;;;435.70;1587.20;;;;;;5072349;28;20056;-66
2021/04/13 06:53:19;;;;;;;11.57;4.78;;;435.80;1536.00;;;;;;5072686;28;20039;-66
2021/04/13 06:55:57;;;;;;;9.57;3.58;;;435.70;1561.60;;;;;;5072947;28;20013;-66
2021/04/13 06:58:35;;;;;;;7.82;2.70;;;435.70;1587.20;;;;;;5073011;28;20025;-67
2021/04/13 07:01:20;;;;;;;7.45;2.83;;;435.60;1561.60;;;;;;5072070;28;20078;-67
2021/04/13 07:04:00;;;;;;;6.85;2.67;;;435.60;1561.60;;;;;;5072494;28;20044;-66
2021/04/13 07:06:47;;;;;;;10.52;5.05;;;435.60;1587.20;;;;;;5064790;28;20028;-67
2021/04/13 07:09:26;;;;;;;13.52;8.90;;;435.50;1689.60;;;;;;5072114;28;20021;-67
2021/04/13 07:12:05;;;;;;;15.70;10.23;;;435.30;1817.60;;;;;;5062400;28;20036;-67
2021/04/13 07:15:05;;;;;;;18.85;10.73;;;435.20;1894.40;;;;;;5054431;28;20029;-66
2021/04/13 07:17:50;;;;;;;17.00;11.65;;;410.40;1920.00;;;;;;5050380;28;20115;-67
2021/04/13 07:20:22;;;;;;;17.75;11.65;;;410.30;1945.60;;;;;;5056221;28;20528;-67
2021/04/13 07:23:02;;;;;;;18.77;12.95;;;410.50;1971.20;;;;;;5054001;28;20041;-67
2021/04/13 07:25:37;;;;;;;18.98;13.40;;;435.30;1971.20;;;;;;5056266;28;20048;-67
2021/04/13 07:28:15;;;;;;;21.52;12.77;;;435.50;1945.60;;;;;;5053065;28;20029;-67
2021/04/13 07:30:45;;;;;;;17.38;12.55;;;435.50;1920.00;;;;;;5058689;28;20028;-68
2021/04/13 07:33:20;;;;;;;19.65;13.25;;;435.40;1945.60;;;;;;5072169;28;20465;-67
2021/04/13 07:35:47;;;;;;;22.48;14.18;;;435.40;1971.20;;;;;;5069544;28;20082;-67
2021/04/13 07:38:22;;;;;;;22.27;14.80;;;435.30;1971.20;;;;;;5065758;28;20029;-67
2021/04/13 07:40:53;;;;;;;24.05;15.00;;;435.30;1971.20;;;;;;5057914;28;20025;-74
2021/04/13 07:43:33;;;;;;;19.48;13.40;;;435.20;1971.20;;;;;;5059756;28;20123;-72
2021/04/13 07:46:36;;;;;;;20.80;13.27;;;410.40;1971.20;;;;;;5070116;28;20024;-68
2021/04/13 07:49:11;;;;;;;19.63;12.90;;;410.20;1971.20;;;;;;5069820;28;20098;-66
2021/04/13 07:51:57;;;;;;;20.58;13.07;;;410.20;1971.20;;;;;;5058728;28;20045;-64
2021/04/13 07:54:48;;;;;;;18.92;12.82;;;410.10;1971.20;;;;;;5052537;28;20036;-65
2021/04/13 07:57:29;;;;;;;19.08;13.07;;;409.90;1996.80;;;;;;5052649;28;20013;-64
2021/04/13 08:00:22;;;;;;;18.38;13.18;;;409.90;1996.80;;;;;;5060547;28;20543;-64
2021/04/13 08:02:54;;;;;;;22.38;13.25;;;410.00;1996.80;;;;;;5056113;28;20051;-64
2021/04/13 08:05:41;;;;;;;21.40;14.32;;;410.40;1945.60;;;;;;5054953;28;20025;-64
2021/04/13 08:08:28;;;;;;;20.10;13.90;;;435.20;1945.60;;;;;;5054180;28;20025;-64
2021/04/13 08:11:17;;;;;;;21.73;14.60;;;435.30;1920.00;;;;;;5052824;28;20056;-65
2021/04/13 08:13:46;;;;;;;23.60;15.82;;;435.30;1920.00;;;;;;5054815;28;20397;-65
2021/04/13 08:16:37;;;;;;;25.60;15.32;;;435.30;1920.00;;;;;;5066461;28;20027;-67
2021/04/13 08:19:14;;;;;;;19.52;13.73;;;435.30;1920.00;;;;;;5058896;28;20023;-65
2021/04/13 08:21:40;;;;;;;20.35;13.70;;;435.20;1920.00;;;;;;5071037;28;20380;-65
2021/04/13 08:24:36;;;;;;;20.85;13.68;;;435.20;1920.00;;;;;;5054544;28;20025;-64
2021/04/13 08:27:14;;;;;;;26.10;14.82;;;410.50;1920.00;;;;;;5052061;28;20041;-65
2021/04/13 08:29:54;;;;;;;23.40;14.38;;;410.50;1920.00;;;;;;5070473;28;20032;-69
2021/04/13 08:32:53;;;;;;;21.30;13.55;;;435.20;1894.40;;;;;;5068945;28;20369;-65
2021/04/13 08:35:21;;;;;;;18.65;13.23;;;435.70;1843.20;;;;;;5070836;28;20055;-69
2021/04/13 08:38:10;;;;;;;21.92;14.68;;;460.80;1817.60;;;;;;5070411;28;20017;-64
2021/04/13 08:40:46;;;;;;;22.02;14.57;;;460.80;1792.00;;;;;;5066107;28;20060;-67
2021/04/13 08:43:30;;;;;;;20.67;13.27;;;461.10;1766.40;;;;;;5051026;28;20021;-69
2021/04/13 08:46:26;;;;;;;17.98;12.85;;;486.50;1689.60;;;;;;5057203;28;20451;-67
2021/04/13 08:49:15;;;;;;;19.73;13.07;;;486.60;1664.00;;;;;;5067169;28;20039;-69
2021/04/13 08:52:09;;;;;;;23.40;14.82;;;486.50;1689.60;;;;;;5069887;28;20033;-68
2021/04/13 08:54:37;;;;;;;20.85;13.27;;;486.50;1664.00;;;;;;5063743;28;20046;-71
2021/04/13 08:57:32;;;;;;;21.15;13.73;;;486.40;1664.00;;;;;;5052510;28;20047;-70
2021/04/13 09:00:04;;;;;;;20.05;12.75;;;486.40;1689.60;;;;;;5060412;28;20029;-67
2021/04/13 09:02:34;;;;;;;19.00;13.02;;;486.50;1664.00;;;;;;5070446;28;20040;-69
2021/04/13 09:05:18;;;;;;;;;;;461.40;1689.60;;;;;;5070797;28;20024;-68
2021/04/13 09:07:46;;;;;;;21.92;13.57;;;461.40;1689.60;;;;;;5070516;28;19905;-68
2021/04/13 09:10:36;;;;;;;20.42;13.63;;;461.40;1689.60;;;;;;5062738;28;20147;-68
2021/04/13 09:13:22;;;;;;;20.60;13.15;;;436.10;1689.60;;;;;;5053403;28;20029;-67
2021/04/13 09:15:48;;;;;;;21.42;13.27;;;435.70;1766.40;;;;;;5060809;28;20016;-75
2021/04/13 09:18:20;;;;;;;22.90;12.65;;;435.80;1740.80;;;;;;5069941;28;20020;-71
2021/04/13 09:20:47;;;;;;;19.48;12.88;;;435.80;1740.80;;;;;;5069612;28;20020;-71
2021/04/13 09:23:41;;;;;;;25.83;14.18;;;435.70;1766.40;;;;;;5070141;28;20056;-71
2021/04/13 09:26:14;;;;;;;24.67;13.82;;;435.60;1766.40;;;;;;5069228;28;20100;-75
2021/04/13 09:29:04;;;;;;;22.45;13.57;;;435.40;1766.40;;;;;;5068151;28;20032;-67
2021/04/13 09:31:43;;;;;;;21.63;13.18;;;435.60;1766.40;;;;;;5069275;28;20023;-69
2021/04/13 09:34:21;;;;;;;20.85;13.95;;;435.30;1766.40;;;;;;5067618;28;20024;-69
2021/04/13 09:37:25;;;;;;;34.53;19.58;;;435.30;1766.40;;;;;;5056771;28;20032;-69
2021/04/13 09:40:10;;;;;;;20.98;14.13;;;410.40;1792.00;;;;;;5073037;28;20043;-70
2021/04/13 09:43:01;;;;;;;23.30;14.35;;;435.20;1792.00;;;;;;5070868;28;20021;-70
2021/04/13 09:45:52;;;;;;;22.00;14.20;;;410.50;1792.00;;;;;;5073694;28;20028;-71
2021/04/13 09:48:52;;;;;;;24.52;17.42;;;410.40;1792.00;;;;;;5066443;28;20040;-68
2021/04/13 09:51:41;;;;;;;24.23;16.42;;;410.00;1817.60;;;;;;5068290;28;20049;-68
2021/04/13 09:54:07;;;;;;;26.05;17.13;;;409.90;1843.20;;;;;;5070694;28;20533;-69
2021/04/13 09:56:48;;;;;;;27.35;20.88;;;409.70;1843.20;;;;;;5073206;28;20108;-70
2021/04/13 09:59:23;;;;;;;23.48;13.52;;;409.60;1868.80;;;;;;5072373;28;20023;-70
2021/04/13 10:02:20;;;;;;;19.52;12.85;;;409.70;1868.80;;;;;;5073907;28;20028;-69
2021/04/13 10:05:12;;;;;;;23.70;12.30;;;409.60;1868.80;;;;;;5073060;28;20469;-70
2021/04/13 10:07:56;;;;;;;19.20;12.50;;;384.80;1868.80;;;;;;5072710;28;20020;-70
2021/04/13 10:10:24;;;;;;;20.00;11.65;;;384.60;1868.80;;;;;;5072532;28;20033;-69
2021/04/13 10:13:07;;;;;;;21.50;12.93;;;384.70;1868.80;;;;;;5072646;28;20024;-69
2021/04/13 10:15:58;;;;;;;17.08;12.07;;;384.70;1868.80;;;;;;5061833;28;20438;-69
2021/04/13 10:18:44;;;;;;;22.27;12.93;;;384.70;1894.40;;;;;;5072610;28;20028;-70
2021/04/13 10:21:38;;;;;;;20.38;13.20;;;384.30;1894.40;;;;;;5072974;28;20040;-70
2021/04/13 10:24:07;;;;;;;21.73;13.15;;;384.10;1920.00;;;;;;5061247;28;20499;-69
2021/04/13 10:27:06;;;;;;;19.58;12.52;;;384.20;1920.00;;;;;;5075295;28;20028;-70
2021/04/13 10:29:31;;;;;;;22.27;12.95;;;384.10;1920.00;;;;;;5073144;28;20109;-73
2021/04/13 10:32:00;;;;;;;20.13;12.57;;;384.10;1920.00;;;;;;5071281;28;20044;-69
2021/04/13 10:35:16;;;;;;;21.20;12.32;;;384.00;1945.60;;;;;;5072921;28;20020;-70
2021/04/13 10:37:59;;;;;;;21.02;13.40;;;384.20;1920.00;;;;;;5010495;28;20029;-69
2021/04/13 10:40:47;;;;;;;19.33;12.70;;;384.10;1920.00;;;;;;5010101;28;20033;-70
2021/04/13 10:43:50;;;;;;;25.10;14.40;;;384.40;1894.40;;;;;;5052707;28;20040;-69
2021/04/13 10:46:30;;;;;;;20.52;13.50;;;384.60;1894.40;;;;;;5062001;28;20294;-69
2021/04/13 10:49:07;;;;;;;19.50;13.82;;;384.40;1894.40;;;;;;5069741;28;20024;-69
2021/04/13 10:51:52;;;;;;;22.20;15.20;;;384.30;1920.00;;;;;;5068033;28;20052;-70
2021/04/13 10:54:36;;;;;;;24.10;15.18;;;384.60;1894.40;;;;;;5071830;28;20024;-69
2021/04/13 10:57:17;;;;;;;20.83;14.45;;;384.50;1894.40;;;;;;5072681;28;20044;-69
2021/04/13 11:00:07;;;;;;;25.20;16.15;;;384.50;1894.40;;;;;;5060199;28;20029;-69
2021/04/13 11:03:03;;;;;;;22.00;13.60;;;384.70;1868.80;;;;;;5072218;28;20099;-72
2021/04/13 11:05:57;;;;;;;24.33;17.15;;;384.50;1868.80;;;;;;5065428;28;20143;-68
2021/04/13 11:08:48;;;;;;;24.33;14.32;;;384.60;1868.80;;;;;;5069298;28;20058;-73
2021/04/13 11:11:17;;;;;;;23.77;14.38;;;384.60;1868.80;;;;;;5057333;28;20115;-67
2021/04/13 11:14:12;;;;;;;19.90;14.45;;;384.50;1868.80;;;;;;5072182;28;20016;-66
2021/04/13 11:16:43;;;;;;;26.75;16.80;;;384.40;1894.40;;;;;;5072792;28;20044;-71
2021/04/13 11:19:12;;;;;;;28.38;17.73;;;384.10;1920.00;;;;;;5068949;28;20017;-69
2021/04/13 11:21:52;;;;;;;23.35;14.38;;;359.00;1971.20;;;;;;5052328;28;20505;-67
2021/04/13 11:24:37;;;;;;;22.40;15.68;;;359.20;1971.20;;;;;;5051440;28;20436;-67
2021/04/13 11:27:28;;;;;;;24.60;16.42;;;359.00;1996.80;;;;;;5055225;28;20033;-65
2021/04/13 11:30:13;;;;;;;24.70;17.08;;;359.10;1996.80;;;;;;5068649;28;20108;-70
2021/04/13 11:33:17;;;;;;;23.65;15.00;;;359.00;1996.80;;;;;;5071422;28;20028;-70
2021/04/13 11:35:47;;;;;;;23.55;14.48;;;359.10;1971.20;;;;;;5071964;28;20013;-65
2021/04/13 11:38:21;;;;;;;26.23;15.77;;;359.20;1996.80;;;;;;5072115;28;20480;-66
2021/04/13 11:41:19;;;;;;;24.70;14.88;;;359.20;1996.80;;;;;;5072179;28;20024;-72
2021/04/13 11:43:50;;;;;;;26.63;15.20;;;359.30;1996.80;;;;;;5072128;28;20029;-64
2021/04/13 11:46:58;;;;;;;25.92;15.35;;;384.00;2022.40;;;;;;5072021;28;20024;-70
2021/04/13 11:49:57;;;;;;;26.13;17.20;;;384.00;2022.40;;;;;;5071062;28;20043;-67
2021/04/13 11:52:34;;;;;;;25.90;18.10;;;359.30;2022.40;;;;;;5069028;28;20020;-72
2021/04/13 11:55:00;;;;;;;24.35;16.77;;;359.00;2022.40;;;;;;5067809;28;20062;-69
2021/04/13 11:57:27;;;;;;;46.30;34.05;;;358.90;2048.00;;;;;;5050621;28;20021;-66
2021/04/13 12:00:19;;;;;;;36.38;22.83;;;359.00;2048.00;;;;;;5052106;28;20477;-71
2021/04/13 12:03:06;;;;;;;39.35;23.98;;;358.80;2073.60;;;;;;5052991;28;20493;-62
2021/04/13 12:05:32;;;;;;;28.08;16.55;;;358.80;2099.20;;;;;;5064658;28;20104;-71
2021/04/13 12:08:00;;;;;;;27.98;17.52;;;358.90;2073.60;;;;;;5071110;28;20552;-65
2021/04/13 12:10:35;;;;;;;25.05;16.05;;;359.10;2073.60;;;;;;5065108;28;20078;-65
2021/04/13 12:13:05;;;;;;;26.95;16.23;;;359.10;2048.00;;;;;;5058315;28;20091;-65
2021/04/13 12:15:31;;;;;;;28.30;15.93;;;359.10;2048.00;;;;;;5064473;28;20036;-66
2021/04/13 12:18:23;;;;;;;25.73;16.90;;;359.10;2048.00;;;;;;5069324;28;20385;-67
2021/04/13 12:20:48;;;;;;;28.50;17.95;;;359.00;2073.60;;;;;;5069356;28;20039;-66
2021/04/13 12:23:14;;;;;;;25.25;16.05;;;358.80;2099.20;;;;;;5070692;28;20036;-66
2021/04/13 12:25:52;;;;;;;27.85;16.55;;;358.80;2150.40;;;;;;5072162;28;20087;-65
2021/04/13 12:28:34;;;;;;;26.77;17.10;;;358.60;2201.60;;;;;;5051458;28;20422;-65
2021/04/13 12:31:05;;;;;;;24.23;16.17;;;358.60;2252.80;;;;;;5049689;28;20029;-65
2021/04/13 12:33:32;;;;;;;25.45;16.08;;;358.50;2304.00;;;;;;5053057;28;20131;-66
2021/04/13 12:36:05;;;;;;;28.77;17.35;;;358.40;2329.60;;;;;;5054046;28;20024;-66
2021/04/13 12:38:51;;;;;;;28.02;17.98;;;333.70;2329.60;;;;;;5062963;28;20029;-68
2021/04/13 12:41:17;;;;;;;38.45;25.77;;;333.60;2329.60;;;;;;5051711;28;20627;-70
2021/04/13 12:44:17;;;;;;;36.40;21.80;;;333.10;2329.60;;;;;;5053800;28;20133;-69
2021/04/13 12:46:47;;;;;;;35.85;21.98;;;333.00;2329.60;;;;;;5053678;28;20036;-67
2021/04/13 12:49:13;;;;;;;33.90;22.83;;;308.10;2304.00;;;;;;5060566;28;20028;-67
2021/04/13 12:51:56;;;;;;;48.25;27.92;;;308.10;2304.00;;;;;;5053668;28;20083;-69
2021/04/13 12:54:40;;;;;;;39.08;24.65;;;308.00;2304.00;;;;;;5051585;28;20017;-65
2021/04/13 12:57:06;;;;;;;30.85;18.70;;;308.10;2304.00;;;;;;5068746;28;20025;-64